Time;durP1;ratioP1;P1;durP2;ratioP2;P2;SDS_P1;SDS_P2;PMS_P1;PMS_P2;Temp;Humidity;BMP_temperature;BMP_pressure;BME280_temperature;BME280_humidity;BME280_pressure;Samples;Min_cycle;Max_cycle;Signal;HPM_P1;HPM_P2
2021/11/11 00:01:44;;;;;;;27.73;17.77;;;3.80;99.90;;;;;;5053174;28;20708;-56
2021/11/11 00:04:11;;;;;;;23.60;14.90;;;3.80;99.90;;;;;;5052391;28;20229;-57
2021/11/11 00:06:38;;;;;;;25.17;16.87;;;3.80;99.90;;;;;;5053373;28;20241;-57
2021/11/11 00:09:06;;;;;;;21.27;14.10;;;3.80;99.90;;;;;;5053180;28;20229;-55
2021/11/11 00:11:33;;;;;;;27.90;16.57;;;3.80;99.90;;;;;;5053105;28;20488;-58
2021/11/11 00:14:01;;;;;;;24.73;16.67;;;3.80;99.90;;;;;;5052943;28;20263;-55
2021/11/11 00:16:27;;;;;;;26.53;17.33;;;3.70;99.90;;;;;;5052922;28;20209;-55
2021/11/11 00:18:54;;;;;;;22.97;16.63;;;3.70;99.90;;;;;;5052915;28;20230;-56
2021/11/11 00:21:21;;;;;;;26.07;16.27;;;3.70;99.90;;;;;;5053109;28;20206;-55
2021/11/11 00:23:48;;;;;;;26.07;16.03;;;3.70;99.90;;;;;;5052678;28;20214;-56
2021/11/11 00:26:15;;;;;;;24.00;15.97;;;3.70;99.90;;;;;;5052814;28;20209;-55
2021/11/11 00:28:42;;;;;;;26.53;15.93;;;3.70;99.90;;;;;;5052575;28;20249;-56
2021/11/11 00:31:10;;;;;;;23.57;15.47;;;3.80;99.90;;;;;;5052568;28;20229;-55
2021/11/11 00:33:37;;;;;;;26.83;15.97;;;3.80;99.90;;;;;;5052659;28;20217;-56
2021/11/11 00:36:04;;;;;;;25.47;16.73;;;3.90;99.90;;;;;;5052741;28;20208;-56
2021/11/11 00:38:31;;;;;;;27.40;16.80;;;4.00;99.90;;;;;;5052079;28;20248;-54
2021/11/11 00:40:58;;;;;;;24.07;16.53;;;4.00;99.90;;;;;;5052642;28;20205;-55
2021/11/11 00:43:25;;;;;;;24.20;16.30;;;3.90;99.90;;;;;;5052291;28;20251;-55
2021/11/11 00:45:51;;;;;;;24.17;16.00;;;3.90;99.90;;;;;;5052339;28;20258;-56
2021/11/11 00:48:20;;;;;;;30.03;17.03;;;3.80;99.90;;;;;;5052249;28;20644;-57
2021/11/11 00:50:47;;;;;;;24.03;16.43;;;3.70;99.90;;;;;;5052548;28;20304;-55
2021/11/11 00:53:13;;;;;;;22.57;16.43;;;3.60;99.90;;;;;;5052415;28;20206;-55
2021/11/11 00:55:40;;;;;;;20.83;15.17;;;3.60;99.90;;;;;;5052282;28;20206;-55
2021/11/11 00:58:07;;;;;;;25.30;15.60;;;3.60;99.90;;;;;;5051995;28;20241;-55
2021/11/11 01:00:36;;;;;;;24.10;15.57;;;3.40;99.90;;;;;;5052488;28;20209;-55
2021/11/11 01:03:04;;;;;;;19.17;14.17;;;3.40;99.90;;;;;;5052320;28;20619;-55
2021/11/11 01:05:33;;;;;;;22.70;14.97;;;3.40;99.90;;;;;;5052416;28;20225;-56
2021/11/11 01:08:00;;;;;;;24.37;15.60;;;3.30;99.90;;;;;;5052422;28;20256;-55
2021/11/11 01:10:28;;;;;;;24.53;15.77;;;3.30;99.90;;;;;;5052120;28;20392;-56
2021/11/11 01:12:55;;;;;;;28.23;16.40;;;3.40;99.90;;;;;;5051840;28;20813;-55
2021/11/11 01:15:25;;;;;;;26.27;16.30;;;3.40;99.90;;;;;;5051645;28;20205;-55
2021/11/11 01:17:52;;;;;;;25.73;15.33;;;3.50;99.90;;;;;;5051149;28;20225;-55
2021/11/11 01:20:20;;;;;;;26.87;17.30;;;3.60;99.90;;;;;;5051770;28;20212;-55
2021/11/11 01:22:51;;;;;;;27.57;18.00;;;3.70;99.90;;;;;;5051700;28;20255;-55
2021/11/11 01:25:20;;;;;;;29.10;17.20;;;3.80;99.90;;;;;;5051327;28;20602;-56
2021/11/11 01:27:47;;;;;;;25.57;16.93;;;3.90;99.90;;;;;;5051764;28;20284;-55
2021/11/11 01:30:14;;;;;;;24.23;16.50;;;3.90;99.90;;;;;;5051387;28;20673;-56
2021/11/11 01:32:41;;;;;;;32.00;16.67;;;4.00;99.90;;;;;;5051484;28;20678;-56
2021/11/11 01:35:09;;;;;;;37.20;17.20;;;4.00;99.90;;;;;;5051210;28;20247;-55
2021/11/11 01:37:37;;;;;;;34.63;16.27;;;4.10;99.90;;;;;;5073765;22;20291;-56
2021/11/11 01:40:07;;;;;;;31.13;16.43;;;4.10;99.90;;;;;;5051980;28;20660;-55
2021/11/11 01:42:42;;;;;;;35.03;17.10;;;4.00;99.90;;;;;;5051656;28;20221;-55
2021/11/11 01:45:10;;;;;;;32.33;17.73;;;4.00;99.90;;;;;;5051377;28;20271;-55
2021/11/11 01:47:37;;;;;;;32.07;17.50;;;4.00;99.90;;;;;;5051200;28;20205;-55
2021/11/11 01:50:04;;;;;;;32.57;15.67;;;4.00;99.90;;;;;;5051321;28;20288;-55
2021/11/11 01:52:31;;;;;;;35.53;16.67;;;4.10;99.90;;;;;;5051290;28;20206;-55
2021/11/11 01:54:57;;;;;;;29.07;15.13;;;4.10;99.90;;;;;;5051343;28;20255;-55
2021/11/11 01:57:27;;;;;;;28.37;16.23;;;4.10;99.90;;;;;;5051212;28;20263;-55
2021/11/11 01:59:54;;;;;;;29.63;15.97;;;4.10;99.90;;;;;;5051121;28;20209;-54
2021/11/11 02:02:24;;;;;;;32.60;15.30;;;4.00;99.90;;;;;;5051211;28;20209;-55
2021/11/11 02:04:51;;;;;;;34.53;15.13;;;3.90;99.90;;;;;;5050977;28;20221;-56
2021/11/11 02:07:18;;;;;;;33.80;15.77;;;3.80;99.90;;;;;;5051442;28;20576;-54
2021/11/11 02:09:45;;;;;;;49.57;16.07;;;3.70;99.90;;;;;;5051243;28;20625;-54
2021/11/11 02:12:11;;;;;;;37.13;16.00;;;3.70;99.90;;;;;;5051536;28;20201;-56
2021/11/11 02:14:40;;;;;;;41.50;16.90;;;3.70;99.90;;;;;;5051163;28;20296;-54
2021/11/11 02:17:06;;;;;;;41.67;16.63;;;3.70;99.90;;;;;;5051511;28;20259;-55
2021/11/11 02:19:33;;;;;;;38.03;16.40;;;3.70;99.90;;;;;;5051042;28;20708;-55
2021/11/11 02:22:03;;;;;;;36.87;16.03;;;3.70;99.90;;;;;;5051363;28;20212;-56
2021/11/11 02:24:32;;;;;;;35.23;15.77;;;3.70;99.90;;;;;;5050895;28;20202;-54
2021/11/11 02:26:59;;;;;;;40.30;16.70;;;3.60;99.90;;;;;;5050621;28;20220;-56
2021/11/11 02:29:27;;;;;;;52.87;16.30;;;3.50;99.90;;;;;;5050828;28;20225;-55
2021/11/11 02:31:54;;;;;;;42.53;15.27;;;3.50;99.90;;;;;;5050770;28;20219;-56
2021/11/11 02:34:23;;;;;;;51.93;17.27;;;3.40;99.90;;;;;;5051088;28;20463;-55
2021/11/11 02:36:58;;;;;;;37.20;16.57;;;3.30;99.90;;;;;;5050955;28;20201;-56
2021/11/11 02:39:30;;;;;;;36.70;15.87;;;3.30;99.90;;;;;;5050579;28;20236;-55
2021/11/11 02:41:57;;;;;;;30.17;16.47;;;3.30;99.90;;;;;;5050673;28;20681;-54
2021/11/11 02:44:23;;;;;;;28.83;16.47;;;3.30;99.90;;;;;;5050377;28;20212;-55
2021/11/11 02:46:51;;;;;;;40.07;16.20;;;3.20;99.90;;;;;;5050841;28;20201;-55
2021/11/11 02:49:18;;;;;;;39.53;17.80;;;3.20;99.90;;;;;;5050569;28;20222;-56
2021/11/11 02:51:44;;;;;;;27.70;15.87;;;3.20;99.90;;;;;;5050720;28;20201;-55
2021/11/11 02:54:11;;;;;;;28.37;15.67;;;3.30;99.90;;;;;;5050433;28;20213;-55
2021/11/11 02:56:39;;;;;;;26.63;14.40;;;3.50;99.90;;;;;;5050636;28;20198;-55
2021/11/11 02:59:06;;;;;;;28.33;14.43;;;3.60;99.90;;;;;;5050451;28;20233;-55
2021/11/11 03:01:33;;;;;;;23.20;13.70;;;3.50;99.90;;;;;;5050582;28;20240;-54
2021/11/11 03:04:00;;;;;;;18.57;13.50;;;3.30;99.90;;;;;;5050582;28;20213;-55
2021/11/11 03:06:27;;;;;;;18.40;13.53;;;3.40;99.90;;;;;;5050464;28;20244;-54
2021/11/11 03:08:53;;;;;;;18.97;12.60;;;3.40;99.90;;;;;;5050273;28;20566;-56
2021/11/11 03:11:23;;;;;;;17.43;12.43;;;3.40;99.90;;;;;;5050440;28;20279;-54
2021/11/11 03:13:51;;;;;;;13.17;11.30;;;3.30;99.90;;;;;;5050369;28;20233;-54
2021/11/11 03:16:18;;;;;;;15.37;11.70;;;3.20;99.90;;;;;;5050946;28;20198;-55
2021/11/11 03:18:45;;;;;;;15.30;12.33;;;3.00;99.90;;;;;;5050312;28;20225;-55
2021/11/11 03:21:11;;;;;;;13.70;11.37;;;2.90;99.90;;;;;;5050554;28;20232;-55
2021/11/11 03:23:38;;;;;;;14.57;11.07;;;2.90;99.90;;;;;;5050290;28;20260;-55
2021/11/11 03:26:05;;;;;;;15.63;11.07;;;2.80;99.90;;;;;;5050042;28;20222;-56
2021/11/11 03:28:32;;;;;;;13.17;10.93;;;2.60;99.90;;;;;;5050389;28;20232;-55
2021/11/11 03:31:00;;;;;;;15.07;10.23;;;2.60;99.90;;;;;;5050604;28;20243;-54
2021/11/11 03:33:27;;;;;;;13.23;10.27;;;2.50;99.90;;;;;;5050279;28;20209;-55
2021/11/11 03:35:54;;;;;;;14.63;10.77;;;2.40;99.90;;;;;;5050312;28;20673;-56
2021/11/11 03:38:20;;;;;;;12.50;10.17;;;2.20;99.90;;;;;;5050180;28;20320;-55
2021/11/11 03:40:48;;;;;;;16.63;10.60;;;2.30;99.90;;;;;;5053022;28;20673;-55
2021/11/11 03:43:15;;;;;;;12.20;9.83;;;2.40;99.90;;;;;;5054046;28;20688;-55
2021/11/11 03:45:42;;;;;;;13.07;10.70;;;2.40;99.90;;;;;;5054003;28;20232;-55
2021/11/11 03:48:10;;;;;;;10.33;9.23;;;2.60;99.90;;;;;;5053775;28;20226;-55
2021/11/11 03:50:38;;;;;;;15.40;10.70;;;2.60;99.90;;;;;;5053827;28;20209;-55
2021/11/11 03:53:04;;;;;;;12.97;10.07;;;2.70;99.90;;;;;;5053754;28;20210;-55
2021/11/11 03:55:31;;;;;;;12.90;10.27;;;2.80;99.90;;;;;;5053671;28;20213;-55
2021/11/11 03:57:59;;;;;;;11.80;9.80;;;2.80;99.90;;;;;;5053557;28;20222;-55
2021/11/11 04:00:26;;;;;;;16.03;11.67;;;2.80;99.90;;;;;;5053683;28;20213;-55
2021/11/11 04:02:53;;;;;;;13.47;10.83;;;2.80;99.90;;;;;;5053443;28;20208;-55
2021/11/11 04:05:21;;;;;;;13.40;10.87;;;2.90;99.90;;;;;;5053240;28;20228;-55
2021/11/11 04:07:48;;;;;;;17.37;13.33;;;2.90;99.90;;;;;;5053109;28;20249;-54
2021/11/11 04:10:15;;;;;;;15.53;12.87;;;3.00;99.90;;;;;;5053609;28;20209;-55
2021/11/11 04:12:42;;;;;;;23.93;13.20;;;3.00;99.90;;;;;;5053260;28;20205;-54
2021/11/11 04:15:11;;;;;;;23.37;14.13;;;3.00;99.90;;;;;;5053447;28;20206;-58
2021/11/11 04:17:38;;;;;;;15.90;12.90;;;3.00;99.90;;;;;;5052956;28;20205;-56
2021/11/11 04:20:06;;;;;;;30.03;14.87;;;3.10;99.90;;;;;;5053034;28;20217;-54
2021/11/11 04:22:34;;;;;;;16.50;13.07;;;3.30;99.90;;;;;;5052929;28;20205;-56
2021/11/11 04:25:02;;;;;;;16.87;12.10;;;3.30;99.90;;;;;;5052768;28;20209;-56
2021/11/11 04:27:32;;;;;;;15.60;12.27;;;3.30;99.90;;;;;;5053223;28;20206;-55
2021/11/11 04:30:08;;;;;;;15.47;12.10;;;3.30;99.90;;;;;;5053042;28;20212;-54
2021/11/11 04:32:35;;;;;;;14.97;11.70;;;3.20;99.90;;;;;;5052843;28;20233;-55
2021/11/11 04:35:02;;;;;;;12.43;10.50;;;3.20;99.90;;;;;;5052359;28;20693;-56
2021/11/11 04:37:32;;;;;;;11.87;10.40;;;3.20;99.90;;;;;;5052406;28;20301;-56
2021/11/11 04:51:24;;;;;;;11.93;9.60;;;2.90;99.90;;;;;;5011915;28;20255;-56
2021/11/11 05:02:20;;;;;;;13.53;10.37;;;2.90;99.90;;;;;;5052637;28;20208;-55
2021/11/11 05:04:47;;;;;;;11.97;10.07;;;2.90;99.90;;;;;;5052357;28;20727;-56
2021/11/11 05:07:13;;;;;;;11.67;9.23;;;2.80;99.90;;;;;;5052309;28;20221;-55
2021/11/11 05:09:40;;;;;;;11.00;9.70;;;2.90;99.90;;;;;;5052140;28;20229;-55
2021/11/11 05:12:11;;;;;;;13.90;10.10;;;2.90;99.90;;;;;;5052294;28;20210;-56
2021/11/11 05:14:38;;;;;;;14.17;9.67;;;2.90;99.90;;;;;;5052200;28;20276;-54
2021/11/11 05:17:05;;;;;;;13.03;10.27;;;3.00;99.90;;;;;;5052284;28;20224;-56
2021/11/11 05:19:31;;;;;;;11.97;9.47;;;3.00;99.90;;;;;;5051991;28;20221;-55
2021/11/11 05:21:58;;;;;;;12.90;10.17;;;3.00;99.90;;;;;;5052180;28;20205;-54
2021/11/11 05:24:25;;;;;;;10.87;9.47;;;3.00;99.90;;;;;;5051775;28;20206;-55
2021/11/11 05:26:51;;;;;;;11.93;9.83;;;3.00;99.90;;;;;;5051637;28;20233;-55
2021/11/11 05:29:19;;;;;;;11.40;10.13;;;3.00;99.90;;;;;;5051718;28;20632;-55
2021/11/11 05:31:46;;;;;;;11.83;9.40;;;3.00;99.90;;;;;;5051475;28;20677;-55
2021/11/11 05:34:13;;;;;;;14.00;10.37;;;3.00;99.90;;;;;;5051760;28;20205;-56
2021/11/11 05:36:39;;;;;;;16.60;11.20;;;3.00;99.90;;;;;;5051448;28;20201;-55
2021/11/11 05:39:06;;;;;;;15.23;11.77;;;3.00;99.90;;;;;;5051310;28;20259;-56
2021/11/11 05:41:34;;;;;;;15.53;11.43;;;3.00;99.90;;;;;;5051400;28;20674;-55
2021/11/11 05:44:00;;;;;;;14.53;11.13;;;3.10;99.90;;;;;;5051782;28;20351;-56
2021/11/11 05:46:28;;;;;;;17.73;12.10;;;3.10;99.90;;;;;;5051501;28;20253;-55
2021/11/11 05:48:55;;;;;;;15.00;11.60;;;3.10;99.90;;;;;;5051313;28;20228;-56
2021/11/11 05:51:22;;;;;;;14.40;11.33;;;3.10;99.90;;;;;;5051345;28;20216;-55
2021/11/11 05:53:48;;;;;;;15.63;11.13;;;3.10;99.90;;;;;;5051270;28;20214;-56
2021/11/11 05:56:15;;;;;;;14.23;12.27;;;3.10;99.90;;;;;;5051443;28;20255;-55
2021/11/11 05:58:42;;;;;;;15.90;11.53;;;3.20;99.90;;;;;;5051176;28;20412;-56
2021/11/11 06:01:08;;;;;;;12.30;10.47;;;3.20;99.90;;;;;;5051447;28;20213;-56
2021/11/11 06:03:36;;;;;;;12.87;10.53;;;3.20;99.90;;;;;;5050509;28;20202;-56
2021/11/11 06:06:04;;;;;;;10.60;9.47;;;3.20;99.90;;;;;;5051061;28;20249;-56
2021/11/11 06:08:30;;;;;;;12.37;9.87;;;3.10;99.90;;;;;;5050807;28;20255;-55
2021/11/11 06:10:57;;;;;;;15.50;10.70;;;3.00;99.90;;;;;;5051376;28;20244;-56
2021/11/11 06:13:24;;;;;;;14.43;10.93;;;2.90;99.90;;;;;;5051167;28;20212;-56
2021/11/11 06:15:52;;;;;;;12.43;10.63;;;2.90;99.90;;;;;;5050962;28;20681;-55
2021/11/11 06:18:20;;;;;;;14.57;10.20;;;2.90;99.90;;;;;;5050949;28;20640;-55
2021/11/11 06:20:56;;;;;;;13.23;10.20;;;2.90;99.90;;;;;;5050844;28;20211;-56
2021/11/11 06:23:23;;;;;;;11.77;10.37;;;2.90;99.90;;;;;;5050529;28;20247;-55
2021/11/11 06:25:50;;;;;;;14.07;11.30;;;2.90;99.90;;;;;;5051057;28;20217;-56
2021/11/11 06:28:17;;;;;;;15.33;11.00;;;2.90;99.90;;;;;;5050680;28;20737;-56
2021/11/11 06:30:43;;;;;;;16.57;10.93;;;2.90;99.90;;;;;;5050929;28;20213;-56
2021/11/11 06:33:10;;;;;;;12.07;10.27;;;2.90;99.90;;;;;;5050662;28;20212;-56
2021/11/11 06:35:37;;;;;;;11.27;10.07;;;2.80;99.90;;;;;;5050378;28;20213;-56
2021/11/11 06:38:06;;;;;;;12.13;9.77;;;2.80;99.90;;;;;;5050445;28;20619;-56
2021/11/11 06:40:34;;;;;;;13.37;10.13;;;2.70;99.90;;;;;;5051033;28;20213;-56
2021/11/11 06:43:02;;;;;;;12.60;10.20;;;2.70;99.90;;;;;;5050755;28;20205;-55
2021/11/11 06:45:34;;;;;;;17.97;10.43;;;2.80;99.90;;;;;;5050785;28;20208;-56
2021/11/11 06:48:01;;;;;;;15.97;9.70;;;2.90;99.90;;;;;;5050705;28;20257;-56
2021/11/11 06:50:27;;;;;;;15.83;11.80;;;2.90;99.90;;;;;;5050618;28;20233;-56
2021/11/11 06:52:54;;;;;;;14.30;11.90;;;3.00;99.90;;;;;;5050737;28;20217;-55
2021/11/11 06:55:22;;;;;;;16.17;11.40;;;3.20;99.90;;;;;;5050706;28;20209;-55
2021/11/11 06:57:49;;;;;;;18.23;14.07;;;3.30;99.90;;;;;;5050432;28;20709;-55
2021/11/11 07:00:17;;;;;;;17.13;11.37;;;3.30;99.90;;;;;;5050976;28;20439;-56
2021/11/11 07:02:44;;;;;;;15.17;11.23;;;3.40;99.90;;;;;;5050403;28;20205;-56
2021/11/11 07:05:11;;;;;;;15.57;11.60;;;3.50;99.90;;;;;;5050500;28;20220;-55
2021/11/11 07:07:37;;;;;;;16.33;10.40;;;3.50;99.90;;;;;;5050318;28;20226;-56
2021/11/11 07:10:05;;;;;;;12.13;9.00;;;3.60;99.90;;;;;;5050710;28;20209;-56
2021/11/11 07:12:33;;;;;;;12.83;9.67;;;3.60;99.90;;;;;;5050785;28;20551;-54
2021/11/11 07:15:04;;;;;;;14.83;10.50;;;3.60;99.90;;;;;;5051694;28;20209;-56
2021/11/11 07:17:33;;;;;;;10.80;9.00;;;3.60;99.90;;;;;;5054381;28;20256;-56
2021/11/11 07:19:59;;;;;;;10.20;8.80;;;3.60;99.90;;;;;;5054151;28;20214;-54
2021/11/11 07:22:26;;;;;;;9.90;8.77;;;3.60;99.90;;;;;;5054257;28;20205;-55
2021/11/11 07:24:53;;;;;;;10.33;9.23;;;3.60;99.90;;;;;;5053897;28;20251;-56
2021/11/11 07:27:20;;;;;;;12.23;10.03;;;3.60;99.90;;;;;;5053763;28;20236;-54
2021/11/11 07:29:48;;;;;;;12.90;10.33;;;3.70;99.90;;;;;;5053675;28;20225;-56
2021/11/11 07:32:14;;;;;;;11.30;9.30;;;3.80;99.90;;;;;;5054299;28;20250;-55
2021/11/11 07:34:42;;;;;;;12.90;10.00;;;3.90;99.90;;;;;;5053897;28;20705;-56
2021/11/11 07:37:09;;;;;;;12.17;10.03;;;3.80;99.90;;;;;;5054293;28;20197;-55
2021/11/11 07:39:36;;;;;;;12.60;10.20;;;3.50;99.90;;;;;;5077073;22;20233;-55
2021/11/11 07:42:03;;;;;;;12.93;10.27;;;3.40;99.90;;;;;;5053933;28;20229;-55
2021/11/11 07:44:30;;;;;;;13.70;10.33;;;3.40;99.90;;;;;;5053557;28;20209;-57
2021/11/11 07:46:58;;;;;;;13.40;10.23;;;3.40;99.90;;;;;;5053907;28;20236;-55
2021/11/11 07:49:25;;;;;;;12.07;10.17;;;3.20;99.90;;;;;;5053567;28;20226;-55
2021/11/11 07:51:52;;;;;;;14.13;10.50;;;3.20;99.90;;;;;;5053619;28;20210;-55
2021/11/11 07:54:18;;;;;;;12.53;9.73;;;3.10;99.90;;;;;;5053304;28;20205;-56
2021/11/11 07:56:45;;;;;;;10.60;9.00;;;2.90;99.90;;;;;;5053267;28;20202;-55
2021/11/11 07:59:14;;;;;;;10.43;9.17;;;2.70;99.90;;;;;;5052709;28;20340;-54
2021/11/11 08:01:41;;;;;;;11.27;9.20;;;2.70;99.90;;;;;;5053092;28;20657;-56
2021/11/11 08:04:09;;;;;;;10.47;9.27;;;2.90;99.90;;;;;;5053320;28;20628;-56
2021/11/11 08:06:36;;;;;;;11.33;9.50;;;3.20;99.90;;;;;;5053125;28;20228;-56
2021/11/11 08:09:03;;;;;;;12.70;8.90;;;3.60;99.90;;;;;;5052965;28;20233;-56
2021/11/11 08:11:30;;;;;;;11.20;9.10;;;4.00;99.90;;;;;;5053068;28;20206;-55
2021/11/11 08:13:57;;;;;;;10.27;9.27;;;4.30;99.90;;;;;;5052870;28;20236;-57
2021/11/11 08:16:24;;;;;;;11.80;9.57;;;4.60;99.90;;;;;;5053278;28;20233;-55
2021/11/11 08:18:50;;;;;;;15.50;9.60;;;4.80;99.90;;;;;;5052812;28;20257;-56
2021/11/11 08:21:18;;;;;;;12.23;10.27;;;5.00;99.90;;;;;;5052894;28;20205;-56
2021/11/11 08:23:45;;;;;;;11.00;9.27;;;5.10;99.90;;;;;;5052841;28;20210;-57
2021/11/11 08:26:12;;;;;;;12.93;9.97;;;5.30;99.90;;;;;;5052147;28;20213;-56
2021/11/11 08:28:39;;;;;;;11.80;10.03;;;5.30;99.90;;;;;;5052620;28;20226;-58
2021/11/11 08:31:05;;;;;;;13.17;9.93;;;5.50;99.90;;;;;;5052952;28;20279;-57
2021/11/11 08:33:32;;;;;;;11.73;9.80;;;5.70;99.90;;;;;;5052751;28;20217;-56
2021/11/11 08:35:59;;;;;;;10.90;9.40;;;5.80;99.90;;;;;;5052712;28;20205;-57
2021/11/11 08:38:27;;;;;;;10.53;9.17;;;5.90;99.90;;;;;;5052348;28;20233;-57
2021/11/11 08:40:55;;;;;;;11.13;9.27;;;6.10;99.90;;;;;;5052563;28;20202;-56
2021/11/11 08:43:21;;;;;;;10.40;8.77;;;6.20;99.90;;;;;;5052859;28;20357;-57
2021/11/11 08:45:49;;;;;;;17.47;13.50;;;6.10;99.90;;;;;;5052712;28;20205;-56
2021/11/11 08:48:16;;;;;;;12.63;9.77;;;5.90;99.90;;;;;;5052324;28;20225;-57
2021/11/11 08:50:43;;;;;;;10.10;8.90;;;6.00;99.90;;;;;;5052633;28;20669;-56
2021/11/11 08:53:12;;;;;;;9.73;8.73;;;6.20;99.90;;;;;;5052608;28;20621;-57
2021/11/11 08:55:42;;;;;;;9.30;8.30;;;6.30;99.90;;;;;;5052287;28;20735;-59
2021/11/11 08:58:10;;;;;;;10.27;8.60;;;6.50;99.90;;;;;;5052213;28;20226;-58
2021/11/11 09:00:41;;;;;;;11.03;8.70;;;6.60;99.90;;;;;;5052248;28;20213;-57
2021/11/11 09:03:09;;;;;;;15.60;12.60;;;6.60;99.90;;;;;;5051904;28;20212;-58
2021/11/11 09:05:37;;;;;;;13.37;11.67;;;6.70;99.90;;;;;;5051966;28;20262;-57
2021/11/11 09:08:05;;;;;;;15.63;11.77;;;6.80;99.90;;;;;;5051713;28;20237;-58
2021/11/11 09:10:32;;;;;;;11.03;9.90;;;6.90;99.90;;;;;;5052240;28;20216;-57
2021/11/11 09:13:00;;;;;;;10.67;9.33;;;7.10;99.90;;;;;;5052129;28;20213;-57
2021/11/11 09:15:29;;;;;;;14.20;8.80;;;7.30;99.90;;;;;;5051709;28;20197;-57
2021/11/11 09:17:58;;;;;;;9.70;8.70;;;7.60;99.90;;;;;;5051624;28;20206;-57
2021/11/11 09:20:26;;;;;;;10.30;9.20;;;7.50;99.90;;;;;;5051568;28;20216;-58
2021/11/11 09:22:54;;;;;;;12.73;9.67;;;7.60;99.90;;;;;;5051885;28;20210;-57
2021/11/11 09:25:22;;;;;;;12.03;9.60;;;7.50;99.90;;;;;;5051870;28;20217;-58
2021/11/11 09:27:49;;;;;;;12.77;10.17;;;7.10;99.90;;;;;;5051558;28;20233;-55
2021/11/11 09:30:21;;;;;;;13.67;9.97;;;6.70;99.90;;;;;;5051640;28;20296;-55
2021/11/11 09:32:48;;;;;;;12.57;10.23;;;6.70;99.90;;;;;;5051636;28;20205;-56
2021/11/11 09:35:15;;;;;;;12.23;10.30;;;7.00;99.90;;;;;;5051887;28;20205;-60
2021/11/11 09:37:42;;;;;;;11.57;10.37;;;7.40;99.90;;;;;;5051121;28;20207;-57
2021/11/11 09:40:14;;;;;;;15.70;10.80;;;7.70;99.90;;;;;;5052005;28;20216;-58
2021/11/11 09:42:42;;;;;;;14.20;11.50;;;8.00;99.90;;;;;;5051870;28;20212;-58
2021/11/11 09:45:11;;;;;;;12.17;10.87;;;8.20;99.90;;;;;;5051615;28;20296;-58
2021/11/11 09:47:40;;;;;;;19.53;12.03;;;8.30;99.90;;;;;;5051656;28;20225;-59
2021/11/11 09:50:09;;;;;;;18.80;11.00;;;8.10;99.90;;;;;;5051587;28;20209;-58
2021/11/11 09:52:38;;;;;;;14.53;11.23;;;7.30;99.90;;;;;;5051888;28;20645;-58
2021/11/11 10:00:48;;;;;;;18.67;10.50;;;7.60;99.90;;;;;;4970553;28;20240;-57
2021/11/11 10:03:17;;;;;;;14.40;11.07;;;7.50;99.90;;;;;;5032784;28;20221;-57
2021/11/11 10:05:44;;;;;;;11.90;9.80;;;6.90;99.90;;;;;;5051576;28;20209;-57
2021/11/11 10:08:31;;;;;;;11.97;9.70;;;6.80;99.90;;;;;;5051507;28;20229;-57
2021/11/11 10:10:58;;;;;;;15.70;10.50;;;6.30;99.90;;;;;;5051507;28;20216;-56
2021/11/11 10:13:25;;;;;;;14.90;11.17;;;5.70;99.90;;;;;;5051379;28;20208;-56
2021/11/11 10:16:14;;;;;;;12.70;10.60;;;5.50;99.90;;;;;;5051186;28;20681;-55
2021/11/11 10:18:51;;;;;;;15.03;11.73;;;5.70;99.90;;;;;;5046228;28;20221;-57
2021/11/11 10:21:40;;;;;;;16.17;12.13;;;6.20;99.90;;;;;;5051420;28;20296;-56
2021/11/11 10:24:28;;;;;;;14.37;11.57;;;6.80;99.90;;;;;;5050879;28;20749;-57
2021/11/11 10:26:59;;;;;;;14.73;12.07;;;7.50;99.90;;;;;;5051520;28;20205;-57
2021/11/11 10:29:31;;;;;;;13.93;11.20;;;7.40;99.90;;;;;;5051853;28;20233;-57
2021/11/11 10:32:06;;;;;;;19.70;13.83;;;7.30;99.90;;;;;;5051290;28;20201;-58
2021/11/11 10:34:35;;;;;;;18.20;13.77;;;7.60;99.90;;;;;;5051124;28;20237;-58
2021/11/11 10:37:03;;;;;;;16.70;13.00;;;8.10;99.90;;;;;;5051384;28;20210;-59
2021/11/11 10:39:32;;;;;;;17.87;14.17;;;8.60;99.90;;;;;;5050343;28;20234;-59
2021/11/11 10:42:13;;;;;;;15.80;13.47;;;8.90;99.90;;;;;;5051161;28;20275;-59
2021/11/11 10:44:39;;;;;;;15.83;12.40;;;9.10;99.90;;;;;;5050887;28;20232;-59
2021/11/11 10:47:08;;;;;;;17.87;13.93;;;8.80;99.90;;;;;;5050893;28;20259;-57
2021/11/11 10:49:40;;;;;;;19.67;14.93;;;8.20;99.90;;;;;;5053688;28;20221;-58
2021/11/11 10:52:26;;;;;;;16.97;13.57;;;7.90;99.90;;;;;;5054805;28;20697;-59
2021/11/11 10:55:03;;;;;;;21.37;14.60;;;7.40;99.90;;;;;;5054820;28;20245;-56
2021/11/11 10:57:36;;;;;;;22.27;17.50;;;6.70;99.90;;;;;;5054628;28;20201;-56
2021/11/11 11:00:12;;;;;;;19.70;15.30;;;6.30;99.90;;;;;;5054847;28;20229;-57
2021/11/11 11:02:50;;;;;;;18.70;15.73;;;6.30;99.90;;;;;;5054747;28;20668;-58
2021/11/11 11:05:18;;;;;;;20.30;16.70;;;6.80;99.90;;;;;;5054629;28;20243;-58
2021/11/11 11:07:46;;;;;;;20.03;15.67;;;7.20;99.90;;;;;;5054797;28;20221;-58
2021/11/11 11:10:17;;;;;;;19.93;15.93;;;7.40;99.90;;;;;;5054352;28;20695;-58
2021/11/11 11:12:45;;;;;;;18.13;13.90;;;7.70;99.90;;;;;;5054224;28;20209;-58
2021/11/11 11:15:34;;;;;;;25.20;15.20;;;7.90;99.90;;;;;;5054272;28;20278;-58
2021/11/11 11:18:01;;;;;;;20.10;15.00;;;8.10;99.90;;;;;;5054464;28;20260;-58
2021/11/11 11:20:30;;;;;;;18.20;14.07;;;8.20;99.90;;;;;;5054460;28;20671;-58
2021/11/11 11:23:15;;;;;;;19.80;15.03;;;8.30;99.90;;;;;;5053889;28;20629;-57
2021/11/11 11:25:54;;;;;;;19.93;15.07;;;8.20;99.90;;;;;;5053724;28;20577;-58
2021/11/11 11:28:30;;;;;;;21.43;15.93;;;8.00;99.90;;;;;;5053590;28;20226;-58
2021/11/11 11:30:58;;;;;;;20.10;15.60;;;7.90;99.90;;;;;;5053933;28;20224;-59
2021/11/11 11:33:34;;;;;;;18.27;14.50;;;7.80;99.90;;;;;;5051843;28;20263;-65
2021/11/11 11:36:03;;;;;;;18.20;14.43;;;8.10;99.90;;;;;;5034374;28;20632;-58
2021/11/11 11:38:37;;;;;;;17.43;15.10;;;8.30;99.90;;;;;;5033515;28;20269;-58
2021/11/11 11:41:05;;;;;;;22.20;15.30;;;8.50;99.90;;;;;;5033755;28;20221;-58
2021/11/11 11:43:34;;;;;;;19.07;15.37;;;8.90;99.90;;;;;;5033664;28;20558;-58
2021/11/11 11:46:15;;;;;;;19.87;16.07;;;9.10;99.90;;;;;;5033389;28;20233;-61
2021/11/11 11:48:42;;;;;;;20.37;15.20;;;9.50;99.90;;;;;;5033610;28;20249;-60
2021/11/11 11:51:11;;;;;;;20.67;15.97;;;9.70;99.90;;;;;;5033841;28;20213;-60
2021/11/11 11:53:45;;;;;;;20.97;16.50;;;9.90;99.90;;;;;;5033903;28;20211;-61
2021/11/11 11:56:16;;;;;;;22.93;15.27;;;10.10;99.90;;;;;;5033849;28;20212;-60
2021/11/11 11:58:47;;;;;;;20.33;16.40;;;9.60;99.90;;;;;;5033567;28;20218;-61
2021/11/11 12:01:29;;;;;;;18.30;14.87;;;9.40;99.90;;;;;;5032908;28;20298;-60
2021/11/11 12:04:02;;;;;;;19.47;15.60;;;9.50;99.90;;;;;;5033552;28;20573;-60
2021/11/11 12:06:51;;;;;;;18.73;14.97;;;9.80;99.90;;;;;;5033575;28;20203;-60
2021/11/11 12:09:24;;;;;;;18.70;15.57;;;10.20;99.90;;;;;;5033463;28;20237;-59
2021/11/11 12:12:10;;;;;;;21.50;15.10;;;10.30;99.90;;;;;;5033843;28;20503;-61
2021/11/11 12:14:44;;;;;;;19.50;16.75;;;9.90;99.90;;;;;;5039675;28;20554;-62
2021/11/11 12:28:39;;;;;;;19.17;15.47;;;8.60;99.90;;;;;;5032749;28;20283;-60
2021/11/11 12:39:45;;;;;;;20.47;16.47;;;9.30;99.90;;;;;;5033280;28;20303;-60
2021/11/11 12:42:15;;;;;;;20.07;16.03;;;9.60;99.90;;;;;;5032278;28;20210;-60
2021/11/11 12:45:07;;;;;;;22.67;16.03;;;9.80;99.90;;;;;;5032715;28;20190;-60
2021/11/11 12:47:37;;;;;;;18.73;15.83;;;10.10;99.90;;;;;;5032579;28;20248;-60
2021/11/11 12:50:26;;;;;;;21.20;16.93;;;10.10;99.90;;;;;;5032309;28;20260;-60
2021/11/11 12:53:27;;;;;;;18.73;15.73;;;10.00;99.90;;;;;;5032393;28;20214;-61
2021/11/11 12:56:17;;;;;;;20.77;17.13;;;10.20;99.90;;;;;;5032727;28;20210;-60
2021/11/11 12:58:47;;;;;;;22.63;17.10;;;10.40;99.90;;;;;;5032139;28;20245;-59
2021/11/11 13:01:17;;;;;;;23.83;18.17;;;10.60;99.90;;;;;;5032204;28;20210;-60
2021/11/11 13:03:50;;;;;;;26.97;19.17;;;10.30;99.90;;;;;;5032373;28;20202;-61
2021/11/11 13:06:39;;;;;;;24.40;20.27;;;9.60;99.90;;;;;;5032608;28;20663;-61
2021/11/11 13:09:12;;;;;;;24.73;19.90;;;9.30;99.90;;;;;;5032361;28;20262;-61
2021/11/11 13:11:43;;;;;;;27.17;17.83;;;9.20;99.90;;;;;;5032196;28;20229;-61
2021/11/11 13:14:15;;;;;;;26.10;17.97;;;8.80;99.90;;;;;;5032846;28;20214;-61
2021/11/11 13:16:43;;;;;;;24.77;18.20;;;8.20;99.90;;;;;;5032939;28;20210;-58
2021/11/11 13:19:10;;;;;;;23.67;17.67;;;7.80;99.90;;;;;;5032206;28;20249;-59
2021/11/11 13:21:49;;;;;;;28.83;18.37;;;7.50;99.90;;;;;;5031982;28;20202;-59
2021/11/11 13:24:27;;;;;;;25.10;18.77;;;7.50;99.90;;;;;;5032179;28;20291;-59
2021/11/11 13:59:19;;;;;;;38.07;20.00;;;8.40;99.90;;;;;;5030963;28;20229;-59
2021/11/11 15:16:24;;;;;;;32.43;22.17;;;7.50;99.90;;;;;;5030434;28;20256;-59
2021/11/11 15:19:26;;;;;;;35.97;26.10;;;7.60;99.90;;;;;;5030364;28;20256;-58
2021/11/11 16:01:08;;;;;;;64.93;23.00;;;7.30;99.90;;;;;;5033434;28;20221;-62